sensor_id;sensor_type;location;lat;lon;timestamp;P1;durP1;ratioP1;P2;durP2;ratioP2
51901;SDS011;37929;53.218;6.548;2022-12-29T00:02:18;4.25;;;3.80;;
51901;SDS011;37929;53.218;6.548;2022-12-29T00:04:44;5.72;;;4.40;;
51901;SDS011;37929;53.218;6.548;2022-12-29T00:07:09;4.63;;;3.75;;
51901;SDS011;37929;53.218;6.548;2022-12-29T00:09:35;5.05;;;3.92;;
51901;SDS011;37929;53.218;6.548;2022-12-29T00:12:02;4.68;;;4.00;;
51901;SDS011;37929;53.218;6.548;2022-12-29T00:14:28;5.05;;;4.10;;
51901;SDS011;37929;53.218;6.548;2022-12-29T00:19:38;5.43;;;3.95;;
51901;SDS011;37929;53.218;6.548;2022-12-29T00:22:23;4.68;;;4.20;;
51901;SDS011;37929;53.218;6.548;2022-12-29T00:25:08;5.78;;;4.38;;
51901;SDS011;37929;53.218;6.548;2022-12-29T00:27:53;4.80;;;3.80;;
51901;SDS011;37929;53.218;6.548;2022-12-29T00:33:22;5.70;;;3.78;;
51901;SDS011;37929;53.218;6.548;2022-12-29T00:36:32;4.93;;;4.28;;
51901;SDS011;37929;53.218;6.548;2022-12-29T00:39:03;4.75;;;3.90;;
51901;SDS011;37929;53.218;6.548;2022-12-29T00:41:53;4.47;;;3.47;;
51901;SDS011;37929;53.218;6.548;2022-12-29T00:44:38;4.90;;;4.10;;
51901;SDS011;37929;53.218;6.548;2022-12-29T00:47:04;5.45;;;3.90;;
51901;SDS011;37929;53.218;6.548;2022-12-29T00:49:30;4.30;;;3.90;;
51901;SDS011;37929;53.218;6.548;2022-12-29T00:51:57;4.88;;;4.22;;
51901;SDS011;37929;53.218;6.548;2022-12-29T00:54:31;4.47;;;3.92;;
51901;SDS011;37929;53.218;6.548;2022-12-29T00:56:58;6.88;;;4.13;;
51901;SDS011;37929;53.218;6.548;2022-12-29T00:59:25;5.05;;;3.83;;
51901;SDS011;37929;53.218;6.548;2022-12-29T01:01:51;4.00;;;3.50;;
51901;SDS011;37929;53.218;6.548;2022-12-29T01:04:18;6.28;;;4.03;;
51901;SDS011;37929;53.218;6.548;2022-12-29T01:06:45;4.22;;;3.55;;
51901;SDS011;37929;53.218;6.548;2022-12-29T01:09:11;4.80;;;3.92;;
51901;SDS011;37929;53.218;6.548;2022-12-29T01:11:56;5.47;;;3.85;;
51901;SDS011;37929;53.218;6.548;2022-12-29T01:14:21;3.85;;;3.45;;
51901;SDS011;37929;53.218;6.548;2022-12-29T01:16:48;4.55;;;3.90;;
51901;SDS011;37929;53.218;6.548;2022-12-29T01:19:14;5.55;;;4.35;;
51901;SDS011;37929;53.218;6.548;2022-12-29T01:21:41;5.60;;;3.80;;
51901;SDS011;37929;53.218;6.548;2022-12-29T01:24:07;4.43;;;3.75;;
51901;SDS011;37929;53.218;6.548;2022-12-29T01:26:32;4.85;;;3.80;;
51901;SDS011;37929;53.218;6.548;2022-12-29T01:28:58;4.95;;;3.67;;
51901;SDS011;37929;53.218;6.548;2022-12-29T01:31:24;3.92;;;3.45;;
51901;SDS011;37929;53.218;6.548;2022-12-29T01:33:50;4.00;;;3.60;;
51901;SDS011;37929;53.218;6.548;2022-12-29T01:36:16;5.43;;;3.88;;
51901;SDS011;37929;53.218;6.548;2022-12-29T01:38:43;4.07;;;3.67;;
51901;SDS011;37929;53.218;6.548;2022-12-29T01:41:10;4.53;;;3.13;;
51901;SDS011;37929;53.218;6.548;2022-12-29T01:43:47;5.07;;;4.20;;
51901;SDS011;37929;53.218;6.548;2022-12-29T01:51:56;5.10;;;3.67;;
51901;SDS011;37929;53.218;6.548;2022-12-29T01:56:55;4.53;;;3.92;;
51901;SDS011;37929;53.218;6.548;2022-12-29T01:59:25;6.03;;;4.47;;
51901;SDS011;37929;53.218;6.548;2022-12-29T02:01:54;6.22;;;4.32;;
51901;SDS011;37929;53.218;6.548;2022-12-29T02:04:20;4.97;;;3.95;;
51901;SDS011;37929;53.218;6.548;2022-12-29T02:07:05;5.60;;;4.60;;
51901;SDS011;37929;53.218;6.548;2022-12-29T02:09:35;5.88;;;4.05;;
51901;SDS011;37929;53.218;6.548;2022-12-29T02:12:01;6.20;;;4.47;;
51901;SDS011;37929;53.218;6.548;2022-12-29T02:14:27;4.50;;;3.95;;
51901;SDS011;37929;53.218;6.548;2022-12-29T02:17:15;7.15;;;3.92;;
51901;SDS011;37929;53.218;6.548;2022-12-29T02:23:00;5.20;;;4.05;;
51901;SDS011;37929;53.218;6.548;2022-12-29T02:45:47;4.10;;;2.80;;
51901;SDS011;37929;53.218;6.548;2022-12-29T02:51:03;4.28;;;2.50;;
51901;SDS011;37929;53.218;6.548;2022-12-29T02:53:34;5.70;;;2.85;;
51901;SDS011;37929;53.218;6.548;2022-12-29T02:56:20;3.40;;;2.30;;
51901;SDS011;37929;53.218;6.548;2022-12-29T02:58:50;3.10;;;2.40;;
51901;SDS011;37929;53.218;6.548;2022-12-29T03:01:23;3.67;;;2.33;;
51901;SDS011;37929;53.218;6.548;2022-12-29T03:04:34;2.80;;;2.20;;
51901;SDS011;37929;53.218;6.548;2022-12-29T03:15:34;5.15;;;2.65;;
51901;SDS011;37929;53.218;6.548;2022-12-29T03:18:32;2.63;;;2.15;;
51901;SDS011;37929;53.218;6.548;2022-12-29T03:24:32;3.00;;;2.20;;
51901;SDS011;37929;53.218;6.548;2022-12-29T03:27:03;3.03;;;2.25;;
51901;SDS011;37929;53.218;6.548;2022-12-29T03:29:34;2.55;;;1.92;;
51901;SDS011;37929;53.218;6.548;2022-12-29T03:32:05;3.13;;;1.90;;
51901;SDS011;37929;53.218;6.548;2022-12-29T03:34:33;2.40;;;1.70;;
51901;SDS011;37929;53.218;6.548;2022-12-29T03:37:04;1.88;;;1.50;;
51901;SDS011;37929;53.218;6.548;2022-12-29T03:39:36;3.42;;;1.63;;
51901;SDS011;37929;53.218;6.548;2022-12-29T03:42:04;2.80;;;1.63;;
51901;SDS011;37929;53.218;6.548;2022-12-29T03:44:35;2.45;;;1.40;;
51901;SDS011;37929;53.218;6.548;2022-12-29T03:47:02;2.22;;;1.30;;
51901;SDS011;37929;53.218;6.548;2022-12-29T03:49:28;1.88;;;1.38;;
51901;SDS011;37929;53.218;6.548;2022-12-29T03:51:54;2.22;;;1.60;;
51901;SDS011;37929;53.218;6.548;2022-12-29T03:54:20;3.08;;;1.42;;
51901;SDS011;37929;53.218;6.548;2022-12-29T03:56:46;3.53;;;1.73;;
51901;SDS011;37929;53.218;6.548;2022-12-29T03:59:12;4.43;;;1.58;;
51901;SDS011;37929;53.218;6.548;2022-12-29T04:01:37;2.83;;;1.70;;
51901;SDS011;37929;53.218;6.548;2022-12-29T04:04:03;2.85;;;1.80;;
51901;SDS011;37929;53.218;6.548;2022-12-29T04:06:29;3.00;;;1.80;;
51901;SDS011;37929;53.218;6.548;2022-12-29T04:08:55;1.90;;;1.48;;
51901;SDS011;37929;53.218;6.548;2022-12-29T04:11:21;3.17;;;1.85;;
51901;SDS011;37929;53.218;6.548;2022-12-29T04:13:47;4.43;;;1.90;;
51901;SDS011;37929;53.218;6.548;2022-12-29T04:16:12;3.83;;;2.00;;
51901;SDS011;37929;53.218;6.548;2022-12-29T04:18:38;2.63;;;1.92;;
51901;SDS011;37929;53.218;6.548;2022-12-29T04:21:04;2.55;;;1.60;;
51901;SDS011;37929;53.218;6.548;2022-12-29T04:23:31;4.15;;;1.50;;
51901;SDS011;37929;53.218;6.548;2022-12-29T04:25:59;5.15;;;1.45;;
51901;SDS011;37929;53.218;6.548;2022-12-29T04:28:26;2.63;;;1.30;;
51901;SDS011;37929;53.218;6.548;2022-12-29T04:30:52;2.92;;;1.42;;
51901;SDS011;37929;53.218;6.548;2022-12-29T04:33:18;2.75;;;1.35;;
51901;SDS011;37929;53.218;6.548;2022-12-29T04:35:44;3.35;;;1.40;;
51901;SDS011;37929;53.218;6.548;2022-12-29T04:38:10;2.47;;;1.33;;
51901;SDS011;37929;53.218;6.548;2022-12-29T04:40:37;5.18;;;1.25;;
51901;SDS011;37929;53.218;6.548;2022-12-29T04:43:05;2.47;;;1.20;;
51901;SDS011;37929;53.218;6.548;2022-12-29T04:45:31;2.65;;;1.10;;
51901;SDS011;37929;53.218;6.548;2022-12-29T04:47:57;4.25;;;1.10;;
51901;SDS011;37929;53.218;6.548;2022-12-29T04:50:22;7.45;;;1.15;;
51901;SDS011;37929;53.218;6.548;2022-12-29T04:52:48;3.85;;;1.00;;
51901;SDS011;37929;53.218;6.548;2022-12-29T04:55:14;1.95;;;1.20;;
51901;SDS011;37929;53.218;6.548;2022-12-29T04:57:40;2.15;;;1.02;;
51901;SDS011;37929;53.218;6.548;2022-12-29T05:00:06;4.13;;;1.10;;
51901;SDS011;37929;53.218;6.548;2022-12-29T05:02:32;2.70;;;1.10;;
51901;SDS011;37929;53.218;6.548;2022-12-29T05:04:57;4.00;;;1.33;;
51901;SDS011;37929;53.218;6.548;2022-12-29T05:07:23;5.28;;;1.30;;
51901;SDS011;37929;53.218;6.548;2022-12-29T05:09:50;3.47;;;1.20;;
51901;SDS011;37929;53.218;6.548;2022-12-29T05:12:15;4.47;;;1.40;;
51901;SDS011;37929;53.218;6.548;2022-12-29T05:14:41;6.35;;;1.50;;
51901;SDS011;37929;53.218;6.548;2022-12-29T05:17:07;4.00;;;1.40;;
51901;SDS011;37929;53.218;6.548;2022-12-29T05:19:32;5.03;;;1.52;;
51901;SDS011;37929;53.218;6.548;2022-12-29T05:21:58;4.40;;;1.20;;
51901;SDS011;37929;53.218;6.548;2022-12-29T05:24:24;4.07;;;1.33;;
51901;SDS011;37929;53.218;6.548;2022-12-29T05:26:49;3.10;;;1.33;;
51901;SDS011;37929;53.218;6.548;2022-12-29T05:29:15;5.63;;;1.30;;
51901;SDS011;37929;53.218;6.548;2022-12-29T05:31:41;4.25;;;1.38;;
51901;SDS011;37929;53.218;6.548;2022-12-29T05:34:06;5.45;;;1.48;;
51901;SDS011;37929;53.218;6.548;2022-12-29T05:36:33;5.57;;;1.77;;
51901;SDS011;37929;53.218;6.548;2022-12-29T05:38:59;4.95;;;1.60;;
51901;SDS011;37929;53.218;6.548;2022-12-29T05:41:25;3.72;;;1.15;;
51901;SDS011;37929;53.218;6.548;2022-12-29T05:43:50;5.75;;;2.00;;
51901;SDS011;37929;53.218;6.548;2022-12-29T05:46:16;4.45;;;1.42;;
51901;SDS011;37929;53.218;6.548;2022-12-29T05:48:42;4.85;;;1.52;;
51901;SDS011;37929;53.218;6.548;2022-12-29T05:51:07;6.05;;;1.50;;
51901;SDS011;37929;53.218;6.548;2022-12-29T05:53:33;5.80;;;1.70;;
51901;SDS011;37929;53.218;6.548;2022-12-29T05:55:59;7.32;;;1.92;;
51901;SDS011;37929;53.218;6.548;2022-12-29T05:58:25;4.82;;;1.75;;
51901;SDS011;37929;53.218;6.548;2022-12-29T06:00:50;3.72;;;1.73;;
51901;SDS011;37929;53.218;6.548;2022-12-29T06:03:16;7.75;;;1.73;;
51901;SDS011;37929;53.218;6.548;2022-12-29T06:05:44;7.35;;;2.03;;
51901;SDS011;37929;53.218;6.548;2022-12-29T06:08:10;5.90;;;1.50;;
51901;SDS011;37929;53.218;6.548;2022-12-29T06:10:36;4.35;;;1.85;;
51901;SDS011;37929;53.218;6.548;2022-12-29T06:13:02;4.10;;;1.40;;
51901;SDS011;37929;53.218;6.548;2022-12-29T06:15:30;6.57;;;1.52;;
51901;SDS011;37929;53.218;6.548;2022-12-29T06:17:59;8.32;;;1.60;;
51901;SDS011;37929;53.218;6.548;2022-12-29T06:20:25;4.60;;;1.30;;
51901;SDS011;37929;53.218;6.548;2022-12-29T06:22:51;4.03;;;1.33;;
51901;SDS011;37929;53.218;6.548;2022-12-29T06:25:17;5.63;;;1.58;;
51901;SDS011;37929;53.218;6.548;2022-12-29T06:27:42;4.57;;;1.48;;
51901;SDS011;37929;53.218;6.548;2022-12-29T06:30:09;6.45;;;1.88;;
51901;SDS011;37929;53.218;6.548;2022-12-29T06:32:36;7.75;;;1.65;;
51901;SDS011;37929;53.218;6.548;2022-12-29T06:35:02;5.25;;;1.60;;
51901;SDS011;37929;53.218;6.548;2022-12-29T06:37:28;6.80;;;1.73;;
51901;SDS011;37929;53.218;6.548;2022-12-29T06:39:54;13.85;;;1.83;;
51901;SDS011;37929;53.218;6.548;2022-12-29T06:42:20;8.65;;;2.00;;
51901;SDS011;37929;53.218;6.548;2022-12-29T06:44:45;5.18;;;1.70;;
51901;SDS011;37929;53.218;6.548;2022-12-29T06:47:11;5.97;;;1.60;;
51901;SDS011;37929;53.218;6.548;2022-12-29T06:49:37;3.88;;;1.48;;
51901;SDS011;37929;53.218;6.548;2022-12-29T06:52:03;7.95;;;1.70;;
51901;SDS011;37929;53.218;6.548;2022-12-29T06:54:32;5.07;;;1.75;;
51901;SDS011;37929;53.218;6.548;2022-12-29T06:56:58;7.57;;;1.83;;
51901;SDS011;37929;53.218;6.548;2022-12-29T06:59:24;9.18;;;1.77;;
51901;SDS011;37929;53.218;6.548;2022-12-29T07:01:50;6.10;;;1.88;;
51901;SDS011;37929;53.218;6.548;2022-12-29T07:04:16;7.93;;;1.60;;
51901;SDS011;37929;53.218;6.548;2022-12-29T07:06:42;10.50;;;1.70;;
51901;SDS011;37929;53.218;6.548;2022-12-29T07:09:08;8.77;;;1.92;;
51901;SDS011;37929;53.218;6.548;2022-12-29T07:11:34;9.00;;;1.70;;
51901;SDS011;37929;53.218;6.548;2022-12-29T07:14:00;9.23;;;1.60;;
51901;SDS011;37929;53.218;6.548;2022-12-29T07:16:26;7.22;;;2.03;;
51901;SDS011;37929;53.218;6.548;2022-12-29T07:18:54;4.60;;;1.40;;
51901;SDS011;37929;53.218;6.548;2022-12-29T07:21:23;8.02;;;1.80;;
51901;SDS011;37929;53.218;6.548;2022-12-29T07:23:49;7.78;;;1.75;;
51901;SDS011;37929;53.218;6.548;2022-12-29T07:26:15;8.20;;;1.60;;
51901;SDS011;37929;53.218;6.548;2022-12-29T07:28:43;6.05;;;1.75;;
51901;SDS011;37929;53.218;6.548;2022-12-29T07:31:15;6.22;;;1.50;;
51901;SDS011;37929;53.218;6.548;2022-12-29T07:33:43;8.60;;;1.67;;
51901;SDS011;37929;53.218;6.548;2022-12-29T07:36:10;7.78;;;1.77;;
51901;SDS011;37929;53.218;6.548;2022-12-29T07:38:37;8.40;;;1.88;;
51901;SDS011;37929;53.218;6.548;2022-12-29T07:41:03;5.40;;;1.65;;
51901;SDS011;37929;53.218;6.548;2022-12-29T07:43:29;5.47;;;1.75;;
51901;SDS011;37929;53.218;6.548;2022-12-29T07:45:54;7.55;;;2.17;;
51901;SDS011;37929;53.218;6.548;2022-12-29T07:48:20;5.82;;;1.55;;
51901;SDS011;37929;53.218;6.548;2022-12-29T07:50:47;7.68;;;2.00;;
51901;SDS011;37929;53.218;6.548;2022-12-29T07:53:13;8.50;;;2.20;;
51901;SDS011;37929;53.218;6.548;2022-12-29T07:55:38;8.90;;;2.45;;
51901;SDS011;37929;53.218;6.548;2022-12-29T07:58:07;6.03;;;1.67;;
51901;SDS011;37929;53.218;6.548;2022-12-29T08:00:33;8.55;;;2.13;;
51901;SDS011;37929;53.218;6.548;2022-12-29T08:02:59;9.48;;;2.28;;
51901;SDS011;37929;53.218;6.548;2022-12-29T08:05:25;5.88;;;1.80;;
51901;SDS011;37929;53.218;6.548;2022-12-29T08:07:50;6.07;;;2.03;;
51901;SDS011;37929;53.218;6.548;2022-12-29T08:10:16;7.15;;;2.20;;
51901;SDS011;37929;53.218;6.548;2022-12-29T08:12:42;8.45;;;1.70;;
51901;SDS011;37929;53.218;6.548;2022-12-29T08:15:09;8.45;;;1.95;;
51901;SDS011;37929;53.218;6.548;2022-12-29T08:17:37;9.48;;;2.03;;
51901;SDS011;37929;53.218;6.548;2022-12-29T08:20:03;6.65;;;2.10;;
51901;SDS011;37929;53.218;6.548;2022-12-29T08:22:29;5.38;;;1.35;;
51901;SDS011;37929;53.218;6.548;2022-12-29T08:24:55;6.10;;;1.90;;
51901;SDS011;37929;53.218;6.548;2022-12-29T08:27:21;5.88;;;1.77;;
51901;SDS011;37929;53.218;6.548;2022-12-29T08:29:47;5.88;;;2.05;;
51901;SDS011;37929;53.218;6.548;2022-12-29T08:32:13;8.32;;;1.80;;
51901;SDS011;37929;53.218;6.548;2022-12-29T08:34:39;8.75;;;1.92;;
51901;SDS011;37929;53.218;6.548;2022-12-29T08:37:05;6.55;;;2.35;;
51901;SDS011;37929;53.218;6.548;2022-12-29T08:39:30;10.23;;;1.95;;
51901;SDS011;37929;53.218;6.548;2022-12-29T08:41:56;7.45;;;2.05;;
51901;SDS011;37929;53.218;6.548;2022-12-29T08:44:22;7.57;;;1.90;;
51901;SDS011;37929;53.218;6.548;2022-12-29T08:46:47;8.02;;;1.77;;
51901;SDS011;37929;53.218;6.548;2022-12-29T08:49:13;9.70;;;2.15;;
51901;SDS011;37929;53.218;6.548;2022-12-29T08:51:39;7.20;;;1.98;;
51901;SDS011;37929;53.218;6.548;2022-12-29T08:54:05;10.00;;;2.33;;
51901;SDS011;37929;53.218;6.548;2022-12-29T08:56:31;8.85;;;2.08;;
51901;SDS011;37929;53.218;6.548;2022-12-29T08:58:57;7.82;;;2.15;;
51901;SDS011;37929;53.218;6.548;2022-12-29T09:01:23;7.70;;;1.98;;
51901;SDS011;37929;53.218;6.548;2022-12-29T09:03:49;12.18;;;2.95;;
51901;SDS011;37929;53.218;6.548;2022-12-29T09:06:15;9.75;;;1.90;;
51901;SDS011;37929;53.218;6.548;2022-12-29T09:08:42;8.35;;;1.88;;
51901;SDS011;37929;53.218;6.548;2022-12-29T09:11:17;6.88;;;2.30;;
51901;SDS011;37929;53.218;6.548;2022-12-29T09:13:45;12.77;;;3.00;;
51901;SDS011;37929;53.218;6.548;2022-12-29T09:16:11;11.20;;;2.97;;
51901;SDS011;37929;53.218;6.548;2022-12-29T09:18:38;11.50;;;2.33;;
51901;SDS011;37929;53.218;6.548;2022-12-29T09:21:07;8.45;;;2.30;;
51901;SDS011;37929;53.218;6.548;2022-12-29T09:23:34;10.23;;;2.45;;
51901;SDS011;37929;53.218;6.548;2022-12-29T09:26:00;11.23;;;2.13;;
51901;SDS011;37929;53.218;6.548;2022-12-29T09:28:26;9.13;;;2.00;;
51901;SDS011;37929;53.218;6.548;2022-12-29T09:30:54;8.10;;;2.08;;
51901;SDS011;37929;53.218;6.548;2022-12-29T09:33:20;10.52;;;2.67;;
51901;SDS011;37929;53.218;6.548;2022-12-29T09:35:50;12.88;;;2.10;;
51901;SDS011;37929;53.218;6.548;2022-12-29T09:38:23;12.57;;;2.50;;
51901;SDS011;37929;53.218;6.548;2022-12-29T09:40:51;6.60;;;1.58;;
51901;SDS011;37929;53.218;6.548;2022-12-29T09:48:40;6.90;;;1.80;;
51901;SDS011;37929;53.218;6.548;2022-12-29T09:51:13;6.63;;;1.85;;
51901;SDS011;37929;53.218;6.548;2022-12-29T09:53:43;7.72;;;1.80;;
51901;SDS011;37929;53.218;6.548;2022-12-29T09:56:19;5.55;;;1.90;;
51901;SDS011;37929;53.218;6.548;2022-12-29T09:58:59;6.03;;;1.58;;
51901;SDS011;37929;53.218;6.548;2022-12-29T10:01:34;6.57;;;2.15;;
51901;SDS011;37929;53.218;6.548;2022-12-29T10:04:06;8.27;;;2.10;;
51901;SDS011;37929;53.218;6.548;2022-12-29T10:09:51;4.53;;;1.48;;
51901;SDS011;37929;53.218;6.548;2022-12-29T10:15:25;7.78;;;2.00;;
51901;SDS011;37929;53.218;6.548;2022-12-29T10:18:08;7.35;;;1.50;;
51901;SDS011;37929;53.218;6.548;2022-12-29T10:23:55;8.73;;;1.95;;
51901;SDS011;37929;53.218;6.548;2022-12-29T10:26:22;6.25;;;2.17;;
51901;SDS011;37929;53.218;6.548;2022-12-29T10:28:53;4.63;;;2.20;;
51901;SDS011;37929;53.218;6.548;2022-12-29T10:31:24;8.15;;;1.85;;
51901;SDS011;37929;53.218;6.548;2022-12-29T10:33:58;8.07;;;2.20;;
51901;SDS011;37929;53.218;6.548;2022-12-29T10:44:45;4.72;;;1.90;;
51901;SDS011;37929;53.218;6.548;2022-12-29T10:47:13;6.07;;;2.30;;
51901;SDS011;37929;53.218;6.548;2022-12-29T10:49:44;6.70;;;1.80;;
51901;SDS011;37929;53.218;6.548;2022-12-29T10:52:11;10.23;;;2.30;;
51901;SDS011;37929;53.218;6.548;2022-12-29T10:54:46;6.38;;;1.80;;
51901;SDS011;37929;53.218;6.548;2022-12-29T11:05:16;8.18;;;2.35;;
51901;SDS011;37929;53.218;6.548;2022-12-29T11:07:51;9.13;;;2.78;;
51901;SDS011;37929;53.218;6.548;2022-12-29T11:10:30;12.52;;;2.58;;
51901;SDS011;37929;53.218;6.548;2022-12-29T11:13:04;7.97;;;2.78;;
51901;SDS011;37929;53.218;6.548;2022-12-29T11:16:02;9.98;;;2.50;;
51901;SDS011;37929;53.218;6.548;2022-12-29T11:21:31;8.30;;;1.88;;
51901;SDS011;37929;53.218;6.548;2022-12-29T11:24:08;9.50;;;2.22;;
51901;SDS011;37929;53.218;6.548;2022-12-29T11:26:51;8.38;;;2.17;;
51901;SDS011;37929;53.218;6.548;2022-12-29T11:29:37;11.70;;;2.40;;
51901;SDS011;37929;53.218;6.548;2022-12-29T11:32:12;6.18;;;2.13;;
51901;SDS011;37929;53.218;6.548;2022-12-29T11:34:43;10.23;;;2.72;;
51901;SDS011;37929;53.218;6.548;2022-12-29T11:42:28;10.77;;;2.25;;
51901;SDS011;37929;53.218;6.548;2022-12-29T11:45:03;13.13;;;2.53;;
51901;SDS011;37929;53.218;6.548;2022-12-29T11:47:32;12.43;;;2.30;;
51901;SDS011;37929;53.218;6.548;2022-12-29T11:50:00;10.38;;;2.00;;
51901;SDS011;37929;53.218;6.548;2022-12-29T11:52:29;12.32;;;2.60;;
51901;SDS011;37929;53.218;6.548;2022-12-29T11:55:00;10.60;;;2.55;;
51901;SDS011;37929;53.218;6.548;2022-12-29T11:57:29;12.60;;;2.05;;
51901;SDS011;37929;53.218;6.548;2022-12-29T11:59:58;12.18;;;2.85;;
51901;SDS011;37929;53.218;6.548;2022-12-29T12:05:43;6.50;;;2.63;;
51901;SDS011;37929;53.218;6.548;2022-12-29T12:08:19;7.25;;;2.13;;
51901;SDS011;37929;53.218;6.548;2022-12-29T12:11:20;11.00;;;2.97;;
51901;SDS011;37929;53.218;6.548;2022-12-29T12:16:39;10.38;;;1.92;;
51901;SDS011;37929;53.218;6.548;2022-12-29T12:19:31;8.25;;;2.25;;
51901;SDS011;37929;53.218;6.548;2022-12-29T12:22:41;15.18;;;2.80;;
51901;SDS011;37929;53.218;6.548;2022-12-29T12:33:14;9.07;;;2.03;;
51901;SDS011;37929;53.218;6.548;2022-12-29T12:35:46;8.55;;;2.13;;
51901;SDS011;37929;53.218;6.548;2022-12-29T12:38:16;9.93;;;2.10;;
51901;SDS011;37929;53.218;6.548;2022-12-29T12:44:03;5.38;;;1.77;;
51901;SDS011;37929;53.218;6.548;2022-12-29T12:46:58;8.40;;;2.58;;
51901;SDS011;37929;53.218;6.548;2022-12-29T12:52:30;7.50;;;1.77;;
51901;SDS011;37929;53.218;6.548;2022-12-29T13:01:10;8.00;;;2.08;;
51901;SDS011;37929;53.218;6.548;2022-12-29T13:09:48;5.80;;;1.30;;
51901;SDS011;37929;53.218;6.548;2022-12-29T13:12:26;5.00;;;1.67;;
51901;SDS011;37929;53.218;6.548;2022-12-29T13:15:57;4.97;;;1.65;;
51901;SDS011;37929;53.218;6.548;2022-12-29T13:23:28;10.23;;;2.25;;
51901;SDS011;37929;53.218;6.548;2022-12-29T13:26:08;5.57;;;1.98;;
51901;SDS011;37929;53.218;6.548;2022-12-29T13:31:52;5.30;;;1.65;;
51901;SDS011;37929;53.218;6.548;2022-12-29T13:34:48;4.97;;;1.58;;
51901;SDS011;37929;53.218;6.548;2022-12-29T13:37:17;5.57;;;1.45;;
51901;SDS011;37929;53.218;6.548;2022-12-29T13:39:52;3.53;;;1.30;;
51901;SDS011;37929;53.218;6.548;2022-12-29T13:42:22;6.82;;;1.52;;
51901;SDS011;37929;53.218;6.548;2022-12-29T13:45:01;8.20;;;1.85;;
51901;SDS011;37929;53.218;6.548;2022-12-29T13:47:46;7.75;;;1.73;;
51901;SDS011;37929;53.218;6.548;2022-12-29T13:50:34;6.53;;;1.50;;
51901;SDS011;37929;53.218;6.548;2022-12-29T13:53:10;4.35;;;1.50;;
51901;SDS011;37929;53.218;6.548;2022-12-29T13:58:20;8.48;;;1.90;;
51901;SDS011;37929;53.218;6.548;2022-12-29T14:08:49;7.13;;;1.55;;
51901;SDS011;37929;53.218;6.548;2022-12-29T14:11:18;6.38;;;1.60;;
51901;SDS011;37929;53.218;6.548;2022-12-29T14:13:47;7.43;;;1.60;;
51901;SDS011;37929;53.218;6.548;2022-12-29T14:16:34;4.32;;;1.67;;
51901;SDS011;37929;53.218;6.548;2022-12-29T14:19:13;6.25;;;2.03;;
51901;SDS011;37929;53.218;6.548;2022-12-29T14:21:49;7.72;;;1.58;;
51901;SDS011;37929;53.218;6.548;2022-12-29T14:24:27;9.27;;;2.50;;
51901;SDS011;37929;53.218;6.548;2022-12-29T14:32:31;4.78;;;1.90;;
51901;SDS011;37929;53.218;6.548;2022-12-29T14:34:49;8.27;;;2.05;;
51901;SDS011;37929;53.218;6.548;2022-12-29T14:37:30;9.25;;;2.15;;
51901;SDS011;37929;53.218;6.548;2022-12-29T14:40:19;5.25;;;1.83;;
51901;SDS011;37929;53.218;6.548;2022-12-29T14:42:51;5.68;;;2.03;;
51901;SDS011;37929;53.218;6.548;2022-12-29T14:47:45;6.22;;;1.60;;
51901;SDS011;37929;53.218;6.548;2022-12-29T14:53:03;5.78;;;1.85;;
51901;SDS011;37929;53.218;6.548;2022-12-29T14:55:45;7.88;;;2.15;;
51901;SDS011;37929;53.218;6.548;2022-12-29T14:58:18;8.30;;;2.22;;
51901;SDS011;37929;53.218;6.548;2022-12-29T15:00:52;8.73;;;1.83;;
51901;SDS011;37929;53.218;6.548;2022-12-29T15:05:54;8.48;;;1.85;;
51901;SDS011;37929;53.218;6.548;2022-12-29T15:08:30;9.13;;;2.42;;
51901;SDS011;37929;53.218;6.548;2022-12-29T15:11:01;8.43;;;2.50;;
51901;SDS011;37929;53.218;6.548;2022-12-29T15:13:37;12.85;;;4.68;;
51901;SDS011;37929;53.218;6.548;2022-12-29T15:16:17;9.55;;;3.15;;
51901;SDS011;37929;53.218;6.548;2022-12-29T15:18:50;9.13;;;2.47;;
51901;SDS011;37929;53.218;6.548;2022-12-29T15:21:16;7.97;;;3.53;;
51901;SDS011;37929;53.218;6.548;2022-12-29T15:23:44;10.23;;;2.17;;
51901;SDS011;37929;53.218;6.548;2022-12-29T15:26:10;11.38;;;3.72;;
51901;SDS011;37929;53.218;6.548;2022-12-29T15:28:44;12.52;;;4.18;;
51901;SDS011;37929;53.218;6.548;2022-12-29T15:31:15;11.32;;;2.17;;
51901;SDS011;37929;53.218;6.548;2022-12-29T15:33:45;7.60;;;2.17;;
51901;SDS011;37929;53.218;6.548;2022-12-29T15:36:24;6.53;;;2.17;;
51901;SDS011;37929;53.218;6.548;2022-12-29T15:38:52;10.25;;;1.92;;
51901;SDS011;37929;53.218;6.548;2022-12-29T15:41:22;6.32;;;2.20;;
51901;SDS011;37929;53.218;6.548;2022-12-29T15:44:20;5.60;;;2.30;;
51901;SDS011;37929;53.218;6.548;2022-12-29T15:46:50;18.08;;;8.65;;
51901;SDS011;37929;53.218;6.548;2022-12-29T15:49:17;10.32;;;4.70;;
51901;SDS011;37929;53.218;6.548;2022-12-29T15:51:45;10.63;;;2.72;;
51901;SDS011;37929;53.218;6.548;2022-12-29T15:54:15;6.68;;;1.90;;
51901;SDS011;37929;53.218;6.548;2022-12-29T15:56:42;9.75;;;4.45;;
51901;SDS011;37929;53.218;6.548;2022-12-29T15:59:28;10.38;;;5.85;;
51901;SDS011;37929;53.218;6.548;2022-12-29T16:01:59;15.90;;;5.20;;
51901;SDS011;37929;53.218;6.548;2022-12-29T16:04:28;8.82;;;2.55;;
51901;SDS011;37929;53.218;6.548;2022-12-29T16:07:05;14.05;;;5.57;;
51901;SDS011;37929;53.218;6.548;2022-12-29T16:09:47;8.98;;;4.05;;
51901;SDS011;37929;53.218;6.548;2022-12-29T16:12:20;9.68;;;3.28;;
51901;SDS011;37929;53.218;6.548;2022-12-29T16:15:01;8.25;;;2.17;;
51901;SDS011;37929;53.218;6.548;2022-12-29T16:17:43;10.60;;;2.65;;
51901;SDS011;37929;53.218;6.548;2022-12-29T16:20:17;10.13;;;3.58;;
51901;SDS011;37929;53.218;6.548;2022-12-29T16:22:48;5.30;;;2.80;;
51901;SDS011;37929;53.218;6.548;2022-12-29T16:25:24;9.43;;;4.07;;
51901;SDS011;37929;53.218;6.548;2022-12-29T16:27:50;9.48;;;4.10;;
51901;SDS011;37929;53.218;6.548;2022-12-29T16:30:27;8.80;;;3.35;;
51901;SDS011;37929;53.218;6.548;2022-12-29T16:32:58;12.80;;;6.00;;
51901;SDS011;37929;53.218;6.548;2022-12-29T16:35:39;6.85;;;3.50;;
51901;SDS011;37929;53.218;6.548;2022-12-29T16:38:22;3.17;;;2.10;;
51901;SDS011;37929;53.218;6.548;2022-12-29T16:40:56;5.90;;;4.35;;
51901;SDS011;37929;53.218;6.548;2022-12-29T16:43:30;6.50;;;3.22;;
51901;SDS011;37929;53.218;6.548;2022-12-29T16:51:05;5.47;;;2.08;;
51901;SDS011;37929;53.218;6.548;2022-12-29T16:53:41;7.05;;;2.92;;
51901;SDS011;37929;53.218;6.548;2022-12-29T16:56:15;5.20;;;2.25;;
51901;SDS011;37929;53.218;6.548;2022-12-29T16:58:46;3.90;;;1.75;;
51901;SDS011;37929;53.218;6.548;2022-12-29T17:01:13;3.97;;;1.85;;
51901;SDS011;37929;53.218;6.548;2022-12-29T17:03:41;22.55;;;11.57;;
51901;SDS011;37929;53.218;6.548;2022-12-29T17:06:14;8.82;;;3.53;;
51901;SDS011;37929;53.218;6.548;2022-12-29T17:08:42;6.32;;;2.58;;
51901;SDS011;37929;53.218;6.548;2022-12-29T17:11:28;4.43;;;2.22;;
51901;SDS011;37929;53.218;6.548;2022-12-29T17:17:23;4.53;;;1.93;;
51901;SDS011;37929;53.218;6.548;2022-12-29T17:20:43;7.90;;;2.30;;
51901;SDS011;37929;53.218;6.548;2022-12-29T17:22:54;4.82;;;2.05;;
51901;SDS011;37929;53.218;6.548;2022-12-29T17:25:30;7.05;;;2.22;;
51901;SDS011;37929;53.218;6.548;2022-12-29T17:28:02;5.50;;;2.10;;
51901;SDS011;37929;53.218;6.548;2022-12-29T17:30:43;6.47;;;2.30;;
51901;SDS011;37929;53.218;6.548;2022-12-29T17:33:11;7.60;;;3.58;;
51901;SDS011;37929;53.218;6.548;2022-12-29T17:35:39;11.43;;;4.45;;
51901;SDS011;37929;53.218;6.548;2022-12-29T17:38:18;6.68;;;2.30;;
51901;SDS011;37929;53.218;6.548;2022-12-29T17:40:48;12.70;;;3.63;;
51901;SDS011;37929;53.218;6.548;2022-12-29T17:43:15;10.55;;;3.80;;
51901;SDS011;37929;53.218;6.548;2022-12-29T17:45:41;7.93;;;4.28;;
51901;SDS011;37929;53.218;6.548;2022-12-29T17:48:15;14.50;;;3.35;;
51901;SDS011;37929;53.218;6.548;2022-12-29T17:50:43;8.85;;;3.03;;
51901;SDS011;37929;53.218;6.548;2022-12-29T17:53:13;9.73;;;2.60;;